Time;durP1;ratioP1;P1;durP2;ratioP2;P2;SDS_P1;SDS_P2;PMS_P1;PMS_P2;Temp;Humidity;BMP_temperature;BMP_pressure;BME280_temperature;BME280_humidity;BME280_pressure;Samples;Min_cycle;Max_cycle;Signal;HPM_P1;HPM_P2
2021/01/03 00:02:05;;;;;;;84.65;53.15;;;205.00;1843.20;;;;;;5054341;28;20116;-84
2021/01/03 00:04:31;;;;;;;89.05;51.80;;;205.00;1843.20;;;;;;5052715;28;20166;-84
2021/01/03 00:06:57;;;;;;;85.85;48.78;;;204.90;1817.60;;;;;;5052780;28;20033;-84
2021/01/03 00:09:24;;;;;;;55.50;36.80;;;205.00;1817.60;;;;;;5053754;28;20358;-85
2021/01/03 00:11:51;;;;;;;67.72;41.60;;;205.00;1817.60;;;;;;5053296;28;20033;-85
2021/01/03 00:14:19;;;;;;;73.13;42.83;;;204.80;1843.20;;;;;;5053001;28;20022;-84
2021/01/03 00:16:52;;;;;;;82.85;48.35;;;180.10;1868.80;;;;;;5053283;28;20026;-84
2021/01/03 00:19:20;;;;;;;101.35;58.00;;;180.00;1868.80;;;;;;5044087;28;20026;-85
2021/01/03 00:21:46;;;;;;;103.93;55.45;;;180.00;1868.80;;;;;;5059760;28;20036;-84
2021/01/03 00:24:12;;;;;;;104.70;62.47;;;180.00;1894.40;;;;;;5039433;28;20101;-84
2021/01/03 00:26:38;;;;;;;108.60;62.75;;;179.80;1894.40;;;;;;5052254;28;20037;-84
2021/01/03 00:29:03;;;;;;;93.25;57.05;;;179.90;1894.40;;;;;;5037011;28;20140;-84
2021/01/03 00:31:29;;;;;;;87.97;52.78;;;179.90;1894.40;;;;;;5053761;28;20032;-83
2021/01/03 00:33:55;;;;;;;93.70;54.85;;;179.80;1894.40;;;;;;5053303;28;20029;-84
2021/01/03 00:36:21;;;;;;;79.97;48.42;;;179.80;1894.40;;;;;;5053389;28;20442;-85
2021/01/03 00:38:47;;;;;;;72.07;42.97;;;179.80;1894.40;;;;;;5052645;28;20049;-85
2021/01/03 00:41:13;;;;;;;67.38;41.42;;;179.80;1894.40;;;;;;5052548;28;20031;-84
2021/01/03 00:43:39;;;;;;;79.93;45.73;;;179.70;1894.40;;;;;;5052201;28;20053;-83
2021/01/03 00:46:04;;;;;;;88.35;50.05;;;179.80;1894.40;;;;;;5052219;28;20045;-84
2021/01/03 00:48:30;;;;;;;52.35;30.92;;;179.70;1920.00;;;;;;5052158;28;20036;-84
2021/01/03 00:50:56;;;;;;;35.25;20.00;;;179.80;1920.00;;;;;;5052518;28;20037;-85
2021/01/03 00:53:21;;;;;;;32.50;18.25;;;180.10;1894.40;;;;;;5052350;28;20037;-84
2021/01/03 00:55:49;;;;;;;29.67;17.13;;;204.80;1868.80;;;;;;5052035;28;20462;-84
2021/01/03 00:58:15;;;;;;;25.58;12.57;;;204.90;1868.80;;;;;;5052017;28;20099;-84
2021/01/03 01:00:41;;;;;;;41.03;20.38;;;205.10;1843.20;;;;;;5052194;28;20026;-84
2021/01/03 01:03:06;;;;;;;33.90;16.25;;;205.10;1843.20;;;;;;5051621;28;20124;-84
2021/01/03 01:05:32;;;;;;;26.92;13.30;;;205.20;1843.20;;;;;;5052267;28;20056;-84
2021/01/03 01:07:58;;;;;;;27.38;15.07;;;205.20;1817.60;;;;;;5035927;28;20382;-85
2021/01/03 01:10:27;;;;;;;28.70;16.45;;;205.20;1817.60;;;;;;5035635;28;20029;-84
2021/01/03 01:12:56;;;;;;;25.83;12.15;;;205.30;1817.60;;;;;;5052565;28;20029;-84
2021/01/03 01:15:23;;;;;;;27.42;13.63;;;205.40;1817.60;;;;;;5051830;28;20026;-85
2021/01/03 01:17:51;;;;;;;35.00;15.63;;;205.40;1817.60;;;;;;5051675;28;20033;-84
2021/01/03 01:20:18;;;;;;;26.38;13.10;;;205.30;1817.60;;;;;;5052476;28;20031;-85
2021/01/03 01:22:44;;;;;;;20.65;12.18;;;205.50;1817.60;;;;;;5051528;28;20029;-84
2021/01/03 01:25:11;;;;;;;18.75;11.18;;;205.60;1817.60;;;;;;5051878;28;20039;-84
2021/01/03 01:27:37;;;;;;;26.73;14.65;;;205.60;1792.00;;;;;;5051569;28;20037;-84
2021/01/03 01:30:04;;;;;;;28.67;15.75;;;205.60;1817.60;;;;;;5051649;28;20060;-83
2021/01/03 01:32:30;;;;;;;26.45;13.82;;;205.60;1792.00;;;;;;5051973;28;20033;-83
2021/01/03 01:34:56;;;;;;;22.92;13.43;;;205.60;1792.00;;;;;;5051716;28;20105;-84
2021/01/03 01:37:21;;;;;;;21.73;11.43;;;205.60;1817.60;;;;;;5051643;28;20033;-83
2021/01/03 01:39:49;;;;;;;17.92;11.35;;;205.60;1817.60;;;;;;5052817;28;20124;-84
2021/01/03 01:42:18;;;;;;;17.67;11.65;;;205.60;1817.60;;;;;;5052050;28;20025;-84
2021/01/03 01:44:45;;;;;;;19.25;11.23;;;205.60;1792.00;;;;;;5052360;28;20038;-85
2021/01/03 01:47:19;;;;;;;23.38;14.32;;;205.70;1817.60;;;;;;5035853;28;20033;-85
2021/01/03 01:49:46;;;;;;;20.23;14.10;;;205.60;1817.60;;;;;;5051057;28;20022;-84
2021/01/03 01:52:14;;;;;;;21.83;12.40;;;205.70;1817.60;;;;;;5051590;28;20025;-84
2021/01/03 01:54:45;;;;;;;19.33;13.25;;;205.70;1817.60;;;;;;5051216;28;20413;-85
2021/01/03 01:57:38;;;;;;;18.83;12.55;;;205.60;1817.60;;;;;;5051464;28;20136;-83
2021/01/03 02:00:15;;;;;;;23.35;15.52;;;205.60;1817.60;;;;;;5051449;28;20053;-84
2021/01/03 02:03:03;;;;;;;27.08;15.73;;;205.60;1817.60;;;;;;5050946;28;20025;-84
2021/01/03 02:05:38;;;;;;;26.85;15.98;;;205.50;1817.60;;;;;;5035720;28;20030;-84
2021/01/03 02:08:32;;;;;;;27.33;17.58;;;205.60;1843.20;;;;;;5052019;28;20036;-84
2021/01/03 02:11:00;;;;;;;27.42;16.23;;;205.50;1843.20;;;;;;5056764;28;20051;-84
2021/01/03 02:13:35;;;;;;;24.85;14.40;;;205.50;1843.20;;;;;;5055511;28;20076;-85
2021/01/03 02:16:09;;;;;;;18.63;11.02;;;205.50;1843.20;;;;;;5054127;28;20470;-85
2021/01/03 02:18:35;;;;;;;16.40;8.90;;;205.50;1843.20;;;;;;5035239;28;20066;-84
2021/01/03 02:21:32;;;;;;;14.57;7.47;;;205.60;1817.60;;;;;;5034655;28;20087;-84
2021/01/03 02:24:20;;;;;;;24.85;13.98;;;205.60;1817.60;;;;;;5050855;28;20021;-84
2021/01/03 02:27:10;;;;;;;20.25;11.20;;;205.60;1817.60;;;;;;5051438;28;20092;-84
2021/01/03 02:29:38;;;;;;;28.13;13.02;;;205.60;1843.20;;;;;;5051966;28;20111;-85
2021/01/03 02:32:06;;;;;;;27.27;12.73;;;205.60;1843.20;;;;;;5051058;28;20117;-84
2021/01/03 02:34:38;;;;;;;23.88;12.35;;;205.60;1868.80;;;;;;5049564;28;20061;-83
2021/01/03 02:37:09;;;;;;;21.58;12.18;;;205.60;1843.20;;;;;;5034725;28;20029;-84
2021/01/03 02:40:07;;;;;;;20.58;13.23;;;205.60;1843.20;;;;;;5051012;28;20166;-84
2021/01/03 02:42:36;;;;;;;26.67;16.65;;;205.40;1894.40;;;;;;4974423;28;20027;-84
2021/01/03 02:45:10;;;;;;;30.77;17.88;;;205.30;1894.40;;;;;;4975833;28;20023;-84
2021/01/03 02:47:37;;;;;;;27.40;18.15;;;205.30;1868.80;;;;;;4958533;28;20043;-84
2021/01/03 02:50:11;;;;;;;28.83;19.08;;;205.30;1868.80;;;;;;4958176;28;20058;-84
2021/01/03 02:52:41;;;;;;;35.42;20.85;;;205.30;1868.80;;;;;;4957926;28;20035;-84
2021/01/03 02:55:09;;;;;;;29.77;19.33;;;205.30;1868.80;;;;;;4957692;28;20125;-83
2021/01/03 02:57:35;;;;;;;30.13;21.15;;;205.30;1868.80;;;;;;4957629;28;20023;-84
2021/01/03 03:00:03;;;;;;;36.35;23.45;;;205.20;1894.40;;;;;;4957820;28;20483;-83
2021/01/03 03:02:28;;;;;;;55.58;34.55;;;205.20;1894.40;;;;;;4957595;28;20031;-82
2021/01/03 03:04:54;;;;;;;60.35;36.75;;;205.20;1894.40;;;;;;4957525;28;20030;-83
2021/01/03 03:07:20;;;;;;;59.60;34.95;;;205.10;1894.40;;;;;;4973800;28;20050;-83
2021/01/03 03:09:45;;;;;;;52.63;34.88;;;205.00;1920.00;;;;;;4957582;28;20030;-82
2021/01/03 03:12:11;;;;;;;65.35;34.75;;;205.00;1920.00;;;;;;4957018;28;20047;-82
2021/01/03 03:14:40;;;;;;;58.78;35.80;;;205.00;1920.00;;;;;;4957986;28;20030;-84
2021/01/03 03:17:07;;;;;;;65.82;39.67;;;205.00;1920.00;;;;;;4957714;28;20086;-84
2021/01/03 03:19:34;;;;;;;66.90;41.47;;;205.00;1920.00;;;;;;5016314;28;20479;-83
2021/01/03 03:21:59;;;;;;;58.97;37.97;;;204.80;1945.60;;;;;;5050129;28;20076;-84
2021/01/03 03:24:25;;;;;;;59.90;37.13;;;204.80;1945.60;;;;;;5049662;28;20400;-84
2021/01/03 03:26:56;;;;;;;58.88;36.72;;;204.90;1945.60;;;;;;5049090;28;20048;-83
2021/01/03 03:29:23;;;;;;;56.63;34.78;;;204.90;1945.60;;;;;;5034475;28;20049;-83
2021/01/03 03:31:55;;;;;;;69.32;41.72;;;205.00;1920.00;;;;;;5033961;28;20500;-83
2021/01/03 03:34:23;;;;;;;77.00;46.08;;;180.10;1971.20;;;;;;5034047;28;20112;-82
2021/01/03 03:36:53;;;;;;;93.03;57.55;;;180.10;1971.20;;;;;;5049280;28;20021;-83
2021/01/03 03:39:19;;;;;;;98.07;59.05;;;204.80;1945.60;;;;;;5048660;28;20040;-83
2021/01/03 03:41:44;;;;;;;83.85;52.85;;;204.80;1971.20;;;;;;5034782;28;20013;-83
2021/01/03 03:44:12;;;;;;;71.50;45.75;;;204.80;1945.60;;;;;;5049463;28;20029;-83
2021/01/03 03:46:37;;;;;;;68.45;42.08;;;204.90;1945.60;;;;;;5048988;28;20413;-83
2021/01/03 03:49:04;;;;;;;58.85;38.47;;;204.80;1945.60;;;;;;5033904;28;20033;-83
2021/01/03 03:51:29;;;;;;;64.38;39.08;;;204.80;1945.60;;;;;;5032675;28;20030;-83
2021/01/03 03:53:55;;;;;;;70.13;43.22;;;204.80;1945.60;;;;;;5049206;28;20083;-83
2021/01/03 03:56:21;;;;;;;66.30;41.30;;;204.80;1945.60;;;;;;5049585;28;20041;-83
2021/01/03 03:58:46;;;;;;;65.95;37.97;;;204.80;1945.60;;;;;;5032740;28;20034;-84
2021/01/03 04:01:13;;;;;;;53.05;35.00;;;204.80;1945.60;;;;;;5049520;28;20029;-83
2021/01/03 04:03:38;;;;;;;55.75;36.47;;;204.80;1945.60;;;;;;5049477;28;20030;-85
2021/01/03 04:06:05;;;;;;;66.10;38.20;;;204.80;1920.00;;;;;;5049166;28;20125;-85
2021/01/03 04:08:31;;;;;;;52.92;32.47;;;204.80;1945.60;;;;;;5049443;28;20056;-84
2021/01/03 04:10:58;;;;;;;51.88;32.97;;;204.80;1945.60;;;;;;5049374;28;20030;-84
2021/01/03 04:13:23;;;;;;;52.05;31.20;;;204.80;1945.60;;;;;;5049246;28;20075;-84
2021/01/03 04:15:49;;;;;;;49.20;33.47;;;204.80;1945.60;;;;;;5049372;28;20112;-84
2021/01/03 04:18:15;;;;;;;47.75;31.75;;;204.80;1945.60;;;;;;5049074;28;20573;-83
2021/01/03 04:20:41;;;;;;;49.40;30.75;;;204.80;1945.60;;;;;;5033489;28;20149;-85
2021/01/03 04:23:10;;;;;;;47.15;29.33;;;204.80;1945.60;;;;;;5049263;28;20029;-85
2021/01/03 04:25:36;;;;;;;50.40;29.17;;;204.80;1945.60;;;;;;5049093;28;20029;-85
2021/01/03 04:28:02;;;;;;;47.30;28.90;;;180.10;1971.20;;;;;;5048850;28;20069;-83
2021/01/03 04:30:28;;;;;;;45.50;27.85;;;180.00;1971.20;;;;;;5103965;22;20049;-84
2021/01/03 04:32:54;;;;;;;46.70;28.80;;;180.10;1971.20;;;;;;5048380;28;20032;-84
2021/01/03 04:35:22;;;;;;;52.88;32.60;;;180.10;1971.20;;;;;;5048402;28;20049;-84
2021/01/03 04:37:51;;;;;;;52.47;34.10;;;180.00;1971.20;;;;;;5049001;28;20022;-85
2021/01/03 04:40:25;;;;;;;45.50;27.63;;;180.00;1971.20;;;;;;5048916;28;20030;-83
2021/01/03 04:42:54;;;;;;;46.20;30.40;;;180.00;1971.20;;;;;;5051351;28;20490;-84
2021/01/03 04:45:36;;;;;;;46.88;29.02;;;179.90;1996.80;;;;;;5037240;28;20048;-85
2021/01/03 04:48:15;;;;;;;55.10;30.52;;;179.90;1996.80;;;;;;5052193;28;20041;-85
2021/01/03 04:50:49;;;;;;;52.30;30.08;;;179.80;1996.80;;;;;;5053401;28;20030;-84
2021/01/03 04:53:24;;;;;;;48.05;28.73;;;179.90;1996.80;;;;;;5037158;28;20025;-83
2021/01/03 04:55:59;;;;;;;46.63;27.70;;;179.90;1996.80;;;;;;5051863;28;20037;-83
2021/01/03 04:58:34;;;;;;;55.05;32.85;;;179.70;2022.40;;;;;;5052319;28;20022;-83
2021/01/03 05:01:37;;;;;;;45.33;31.23;;;179.70;2022.40;;;;;;5052476;28;20037;-83
2021/01/03 05:04:06;;;;;;;55.63;35.28;;;179.70;2022.40;;;;;;5012229;28;20571;-84
2021/01/03 05:06:33;;;;;;;47.97;33.30;;;179.90;2022.40;;;;;;5052151;28;20036;-84
2021/01/03 05:09:01;;;;;;;48.80;31.13;;;179.80;2022.40;;;;;;5052397;28;20075;-83
2021/01/03 05:11:54;;;;;;;43.05;25.92;;;179.80;2022.40;;;;;;5051963;28;20044;-84
2021/01/03 05:14:29;;;;;;;36.65;23.52;;;179.90;1996.80;;;;;;5036380;28;20030;-83
2021/01/03 05:16:57;;;;;;;25.15;16.08;;;179.90;1996.80;;;;;;5052325;28;20037;-83
2021/01/03 05:19:24;;;;;;;24.88;15.07;;;180.00;1996.80;;;;;;5051859;28;20037;-83
2021/01/03 05:21:55;;;;;;;22.02;11.73;;;180.10;1971.20;;;;;;5035772;28;20034;-83
2021/01/03 05:24:24;;;;;;;25.23;12.18;;;180.10;1971.20;;;;;;5051522;28;20033;-83
2021/01/03 05:26:50;;;;;;;24.88;12.32;;;204.90;1945.60;;;;;;5035949;28;20029;-83
2021/01/03 05:29:28;;;;;;;25.75;13.10;;;204.90;1945.60;;;;;;5051239;28;20017;-84
2021/01/03 05:32:02;;;;;;;23.40;14.13;;;204.90;1945.60;;;;;;5036080;28;20053;-83
2021/01/03 05:34:43;;;;;;;19.73;13.57;;;205.00;1945.60;;;;;;5036022;28;20477;-85
2021/01/03 05:37:13;;;;;;;18.13;12.02;;;205.00;1945.60;;;;;;5035908;28;20031;-83
2021/01/03 05:39:40;;;;;;;24.92;14.35;;;205.00;1945.60;;;;;;5051225;28;20036;-84
2021/01/03 05:42:25;;;;;;;20.35;13.27;;;205.00;1945.60;;;;;;5051645;28;20493;-84
2021/01/03 05:45:10;;;;;;;22.60;12.30;;;205.00;1945.60;;;;;;5051795;28;20037;-84
2021/01/03 05:48:01;;;;;;;17.08;12.38;;;205.00;1945.60;;;;;;5054384;28;20030;-85
2021/01/03 05:50:37;;;;;;;24.40;16.85;;;205.00;1945.60;;;;;;5038846;28;20033;-84
2021/01/03 05:53:08;;;;;;;38.08;20.80;;;205.10;1945.60;;;;;;5034589;28;20029;-84
2021/01/03 05:55:36;;;;;;;29.52;16.85;;;205.10;1945.60;;;;;;5050882;28;20037;-85
2021/01/03 05:58:11;;;;;;;22.05;11.60;;;205.10;1945.60;;;;;;5052186;28;20021;-85
2021/01/03 06:00:37;;;;;;;25.48;13.75;;;205.10;1945.60;;;;;;5051077;28;20044;-85
2021/01/03 06:03:16;;;;;;;20.15;12.05;;;205.10;1945.60;;;;;;5035546;28;20025;-85
2021/01/03 06:05:49;;;;;;;26.50;14.50;;;205.10;1945.60;;;;;;5050996;28;20041;-85
2021/01/03 06:08:28;;;;;;;31.73;16.35;;;205.10;1971.20;;;;;;5050918;28;20034;-84
2021/01/03 06:10:54;;;;;;;62.45;38.10;;;205.10;1971.20;;;;;;5035476;28;20018;-85
2021/01/03 06:13:24;;;;;;;95.80;54.70;;;205.10;1971.20;;;;;;5050776;28;20083;-83
2021/01/03 06:15:59;;;;;;;97.85;59.22;;;204.90;1971.20;;;;;;5034177;28;20029;-83
2021/01/03 06:18:38;;;;;;;131.98;80.30;;;204.80;1971.20;;;;;;5051631;28;20040;-83
2021/01/03 06:21:04;;;;;;;85.00;49.47;;;180.10;1996.80;;;;;;5050361;28;20035;-84
2021/01/03 06:23:29;;;;;;;60.35;38.20;;;180.00;1996.80;;;;;;5036878;28;20033;-84
2021/01/03 06:26:06;;;;;;;73.40;43.53;;;180.00;2022.40;;;;;;5050437;28;20492;-83
2021/01/03 06:28:41;;;;;;;82.55;47.28;;;179.90;2022.40;;;;;;5050932;28;20026;-84
2021/01/03 06:31:44;;;;;;;53.17;33.97;;;180.00;2022.40;;;;;;5051113;28;20052;-84
2021/01/03 06:34:14;;;;;;;76.00;44.27;;;180.00;1996.80;;;;;;5050061;28;20033;-83
2021/01/03 06:36:59;;;;;;;76.47;45.50;;;180.00;1996.80;;;;;;5051542;28;20468;-83
2021/01/03 06:39:37;;;;;;;66.80;43.80;;;179.90;1996.80;;;;;;5050812;28;20030;-83
2021/01/03 06:42:25;;;;;;;150.25;97.13;;;179.90;1996.80;;;;;;5050124;28;20021;-84
2021/01/03 06:45:26;;;;;;;95.72;64.07;;;180.00;1996.80;;;;;;5052265;28;20065;-83
2021/01/03 06:48:07;;;;;;;93.10;57.35;;;180.00;1996.80;;;;;;5051207;28;20056;-83
2021/01/03 06:51:25;;;;;;;74.47;46.53;;;180.00;1996.80;;;;;;5050218;28;20063;-84
2021/01/03 06:54:43;;;;;;;79.57;48.08;;;180.00;2022.40;;;;;;4916362;29;20044;-83
2021/01/03 06:57:29;;;;;;;111.88;63.85;;;179.80;2022.40;;;;;;4823661;29;20037;-84
2021/01/03 07:00:10;;;;;;;100.80;59.17;;;179.80;2048.00;;;;;;4808566;29;20058;-83
2021/01/03 07:02:43;;;;;;;117.57;69.10;;;179.70;2048.00;;;;;;4824142;29;20055;-83
2021/01/03 07:05:10;;;;;;;112.85;72.75;;;179.80;2022.40;;;;;;4807361;29;20102;-84
2021/01/03 07:07:38;;;;;;;94.68;60.78;;;179.90;2022.40;;;;;;4809038;29;20046;-84
2021/01/03 07:10:07;;;;;;;82.90;52.08;;;179.80;2022.40;;;;;;4810660;29;20123;-83
2021/01/03 07:12:44;;;;;;;80.90;53.38;;;179.80;2022.40;;;;;;4814167;29;20034;-83
2021/01/03 07:15:14;;;;;;;69.75;47.72;;;179.70;2022.40;;;;;;4813499;29;20179;-85
2021/01/03 07:18:21;;;;;;;89.78;60.95;;;179.70;2048.00;;;;;;4826455;29;20160;-85
2021/01/03 07:21:12;;;;;;;90.03;53.85;;;179.60;2048.00;;;;;;4805505;29;20051;-85
2021/01/03 07:23:43;;;;;;;115.13;67.72;;;179.70;2048.00;;;;;;4790465;29;20080;-87
2021/01/03 07:26:27;;;;;;;113.75;71.82;;;179.90;2022.40;;;;;;4790109;29;20042;-86
2021/01/03 07:29:06;;;;;;;120.80;76.85;;;180.00;1996.80;;;;;;4805147;29;20035;-85
2021/01/03 07:32:01;;;;;;;112.32;71.63;;;180.00;2022.40;;;;;;4840763;29;20113;-86
2021/01/03 07:34:33;;;;;;;114.40;73.40;;;204.80;1996.80;;;;;;4954664;28;20031;-86
2021/01/03 07:37:19;;;;;;;137.63;87.82;;;204.90;1996.80;;;;;;4957268;28;20027;-85
2021/01/03 07:39:57;;;;;;;99.18;67.00;;;205.10;1971.20;;;;;;4973820;28;20039;-85
2021/01/03 07:42:25;;;;;;;102.38;64.15;;;205.20;1945.60;;;;;;4977081;28;20054;-85
2021/01/03 07:44:52;;;;;;;121.35;83.57;;;205.30;1920.00;;;;;;4974440;28;20106;-85
2021/01/03 07:47:54;;;;;;;91.32;59.80;;;205.30;1920.00;;;;;;4973357;28;20042;-86
2021/01/03 07:50:23;;;;;;;84.38;52.60;;;205.50;1920.00;;;;;;4878436;29;20514;-85
2021/01/03 07:52:53;;;;;;;107.18;64.32;;;205.70;1894.40;;;;;;4878530;29;20044;-85
2021/01/03 07:55:22;;;;;;;102.47;65.60;;;205.70;1894.40;;;;;;4921732;29;20497;-85
2021/01/03 07:57:55;;;;;;;112.35;65.85;;;230.40;1868.80;;;;;;4919227;29;20123;-85
2021/01/03 08:00:22;;;;;;;95.20;62.78;;;205.70;1868.80;;;;;;4918519;29;20063;-85
2021/01/03 08:02:50;;;;;;;68.07;46.75;;;205.70;1868.80;;;;;;4919785;29;20059;-90
2021/01/03 08:05:21;;;;;;;81.70;53.97;;;230.60;1920.00;;;;;;4919576;29;20072;-89
2021/01/03 08:07:46;;;;;;;111.05;70.53;;;230.80;1843.20;;;;;;4936531;29;20055;-88
2021/01/03 08:10:13;;;;;;;97.60;64.22;;;230.80;1843.20;;;;;;4920714;29;20049;-89
2021/01/03 08:12:50;;;;;;;93.57;58.88;;;230.80;1868.80;;;;;;4918911;29;20036;-83
2021/01/03 08:15:29;;;;;;;88.07;55.25;;;230.90;1843.20;;;;;;4918592;29;20473;-86
2021/01/03 08:18:17;;;;;;;75.93;50.35;;;230.90;1843.20;;;;;;4922732;29;20131;-85
2021/01/03 08:20:44;;;;;;;68.93;43.92;;;230.90;1843.20;;;;;;4921966;29;20028;-84
2021/01/03 08:23:28;;;;;;;65.93;42.38;;;231.10;1843.20;;;;;;4926875;28;20090;-85
2021/01/03 08:26:15;;;;;;;82.70;55.55;;;231.20;1817.60;;;;;;5053092;28;20034;-86
2021/01/03 08:28:53;;;;;;;94.70;61.22;;;231.10;1843.20;;;;;;5054125;28;20033;-84
2021/01/03 08:31:22;;;;;;;96.85;62.08;;;231.00;1843.20;;;;;;5054067;28;20072;-86
2021/01/03 08:33:51;;;;;;;98.68;63.42;;;231.00;1843.20;;;;;;5066220;28;20025;-85
2021/01/03 08:36:31;;;;;;;126.05;80.20;;;231.00;1868.80;;;;;;5053544;28;20033;-87
2021/01/03 08:39:13;;;;;;;113.75;79.82;;;231.00;1843.20;;;;;;5053661;28;20061;-86
2021/01/03 08:42:02;;;;;;;128.47;86.63;;;231.00;1868.80;;;;;;5054837;28;20095;-83
2021/01/03 08:44:40;;;;;;;134.00;83.47;;;231.10;1868.80;;;;;;5037139;28;20496;-81
2021/01/03 08:47:10;;;;;;;124.68;77.00;;;230.90;1894.40;;;;;;5052806;28;20044;-83
2021/01/03 08:49:35;;;;;;;90.85;55.90;;;230.90;1894.40;;;;;;5051881;28;20103;-82
2021/01/03 08:52:15;;;;;;;105.18;62.45;;;231.30;1971.20;;;;;;5053484;28;20056;-87
2021/01/03 08:54:45;;;;;;;81.22;50.05;;;256.60;1843.20;;;;;;5053524;28;20022;-83
2021/01/03 08:57:11;;;;;;;107.05;50.35;;;281.90;1843.20;;;;;;5053569;28;20128;-88
2021/01/03 08:59:41;;;;;;;69.88;45.38;;;282.40;1792.00;;;;;;5053189;28;20025;-85
2021/01/03 09:02:22;;;;;;;58.10;37.85;;;307.50;1740.80;;;;;;5053853;28;20033;-85
2021/01/03 09:04:53;;;;;;;51.65;34.88;;;307.80;1689.60;;;;;;5052381;28;20033;-84
2021/01/03 09:07:20;;;;;;;57.58;34.95;;;358.50;1612.80;;;;;;5053260;28;20041;-86
2021/01/03 09:09:50;;;;;;;57.60;39.90;;;435.70;1305.60;;;;;;5059546;28;20025;-84
2021/01/03 09:12:33;;;;;;;56.05;40.47;;;537.60;1075.20;;;;;;5044061;28;20045;-85
2021/01/03 09:15:00;;;;;;;46.13;32.85;;;589.60;921.60;;;;;;5037292;28;20030;-88
2021/01/03 09:17:36;;;;;;;49.58;34.67;;;640.40;819.20;;;;;;5036465;28;20029;-85
2021/01/03 09:20:32;;;;;;;48.85;34.80;;;665.80;768.00;;;;;;5052141;28;20067;-85
2021/01/03 09:23:08;;;;;;;39.20;27.23;;;691.20;742.40;;;;;;5055990;28;20021;-85
2021/01/03 09:25:37;;;;;;;48.03;32.47;;;640.50;768.00;;;;;;5052544;28;20036;-84
2021/01/03 09:28:21;;;;;;;49.25;34.30;;;563.50;947.20;;;;;;5050804;28;20033;-84
2021/01/03 09:30:47;;;;;;;33.70;25.95;;;461.20;1152.00;;;;;;5051914;28;20088;-88
2021/01/03 09:33:22;;;;;;;40.55;28.65;;;409.90;1305.60;;;;;;5035275;28;20045;-88
2021/01/03 09:36:15;;;;;;;31.75;24.98;;;384.10;1356.80;;;;;;5051487;28;20503;-90
2021/01/03 09:38:40;;;;;;;42.10;29.67;;;358.80;1484.80;;;;;;5051468;28;20026;-86
2021/01/03 09:41:24;;;;;;;43.05;29.58;;;358.40;1484.80;;;;;;5051766;28;20112;-89
2021/01/03 09:44:27;;;;;;;38.45;26.83;;;333.50;1484.80;;;;;;5051622;28;20467;-86
2021/01/03 09:46:59;;;;;;;38.65;26.20;;;333.20;1536.00;;;;;;5051762;28;20116;-90
2021/01/03 09:49:37;;;;;;;46.63;30.27;;;333.00;1561.60;;;;;;5051503;28;20025;-89
2021/01/03 09:52:14;;;;;;;223.15;109.82;;;332.90;1561.60;;;;;;5051945;28;20026;-89
2021/01/03 09:54:48;;;;;;;245.68;121.80;;;333.10;1561.60;;;;;;5052175;28;20480;-83
2021/01/03 09:57:52;;;;;;;56.97;35.08;;;333.60;1587.20;;;;;;5051110;28;20032;-84
2021/01/03 10:00:23;;;;;;;39.03;26.98;;;358.60;1536.00;;;;;;5051088;28;20409;-84
2021/01/03 10:02:50;;;;;;;44.58;28.55;;;358.80;1510.40;;;;;;5050807;28;20155;-83
2021/01/03 10:05:24;;;;;;;51.72;36.95;;;359.00;1433.60;;;;;;5050934;28;20045;-86
2021/01/03 10:08:27;;;;;;;39.15;28.63;;;359.20;1459.20;;;;;;5050592;28;20524;-83
2021/01/03 10:10:57;;;;;;;46.63;25.05;;;384.20;1459.20;;;;;;5034747;28;20447;-84
2021/01/03 10:13:27;;;;;;;33.40;21.20;;;384.50;1408.00;;;;;;5035660;28;20496;-87
2021/01/03 10:15:53;;;;;;;27.67;19.33;;;384.70;1408.00;;;;;;5051832;28;20056;-87
2021/01/03 10:18:35;;;;;;;45.90;30.00;;;384.40;1382.40;;;;;;5051871;28;20034;-84
2021/01/03 10:21:17;;;;;;;25.13;18.33;;;384.70;1356.80;;;;;;5051588;28;20508;-85
2021/01/03 10:23:45;;;;;;;35.47;24.35;;;384.90;1356.80;;;;;;5051417;28;20489;-86
2021/01/03 10:26:21;;;;;;;63.15;37.50;;;409.80;1331.20;;;;;;5051313;28;20029;-85
2021/01/03 10:28:47;;;;;;;44.60;29.23;;;409.80;1356.80;;;;;;5051986;28;20436;-85
2021/01/03 10:31:13;;;;;;;44.78;29.77;;;409.80;1305.60;;;;;;5050596;28;20046;-84
2021/01/03 10:33:38;;;;;;;51.67;34.60;;;409.90;1254.40;;;;;;5050186;28;20041;-84
2021/01/03 10:36:05;;;;;;;51.83;34.05;;;409.60;1280.00;;;;;;5050938;28;20056;-84
2021/01/03 10:38:30;;;;;;;36.28;28.05;;;410.00;1305.60;;;;;;5049732;28;20042;-86
2021/01/03 10:40:56;;;;;;;42.10;29.98;;;410.00;1305.60;;;;;;5051311;28;20474;-83
2021/01/03 10:43:22;;;;;;;39.05;25.48;;;410.40;1331.20;;;;;;5050416;28;20123;-84
2021/01/03 10:45:48;;;;;;;31.63;23.27;;;435.30;1254.40;;;;;;5050600;28;20481;-85
2021/01/03 10:48:14;;;;;;;38.45;24.33;;;435.50;1203.20;;;;;;5035766;28;20076;-83
2021/01/03 10:50:40;;;;;;;32.60;20.98;;;435.30;1254.40;;;;;;5052345;28;20057;-83
2021/01/03 10:53:05;;;;;;;32.13;22.17;;;435.60;1228.80;;;;;;5035233;28;20087;-86
2021/01/03 10:55:31;;;;;;;32.70;23.15;;;410.20;1228.80;;;;;;5049700;28;20493;-83
2021/01/03 10:57:57;;;;;;;37.05;25.65;;;435.20;1203.20;;;;;;5050232;28;20056;-83
2021/01/03 11:00:24;;;;;;;39.33;25.52;;;435.50;1203.20;;;;;;5051069;28;20060;-82
2021/01/03 11:02:50;;;;;;;23.52;16.92;;;435.70;1177.60;;;;;;5054699;28;20112;-85
2021/01/03 11:05:18;;;;;;;33.13;23.70;;;435.90;1177.60;;;;;;5053548;28;20049;-85
2021/01/03 11:07:45;;;;;;;29.25;19.63;;;436.10;1152.00;;;;;;5050357;28;20056;-84
2021/01/03 11:10:12;;;;;;;34.67;20.75;;;460.90;1203.20;;;;;;5051383;28;20069;-82
2021/01/03 11:12:38;;;;;;;26.50;17.00;;;436.10;1152.00;;;;;;5051501;28;20033;-85
2021/01/03 11:15:08;;;;;;;20.88;14.15;;;435.80;1177.60;;;;;;5050614;28;20083;-86
2021/01/03 11:17:34;;;;;;;20.15;13.75;;;435.60;1177.60;;;;;;5049949;28;20084;-84
2021/01/03 11:20:00;;;;;;;16.10;11.93;;;435.80;1177.60;;;;;;5049882;28;20025;-85
2021/01/03 11:22:25;;;;;;;17.23;13.35;;;436.10;1126.40;;;;;;5049868;28;20096;-87
2021/01/03 11:24:51;;;;;;;20.65;13.43;;;436.10;1100.80;;;;;;5050021;28;20044;-86
2021/01/03 11:27:19;;;;;;;23.92;17.88;;;461.10;1152.00;;;;;;5050298;28;20553;-86
2021/01/03 11:29:45;;;;;;;26.95;18.35;;;460.80;1100.80;;;;;;5050206;28;20029;-86
2021/01/03 11:32:21;;;;;;;28.48;18.20;;;436.10;1100.80;;;;;;5052032;28;20057;-86
2021/01/03 11:34:46;;;;;;;29.25;21.92;;;460.90;1152.00;;;;;;5052102;28;20481;-89
2021/01/03 11:37:16;;;;;;;29.33;19.90;;;461.10;1152.00;;;;;;5034376;28;20026;-90
2021/01/03 11:39:45;;;;;;;29.80;19.05;;;460.80;1152.00;;;;;;5051223;28;20124;-88
2021/01/03 11:42:14;;;;;;;22.13;15.35;;;461.30;1126.40;;;;;;5052308;28;20040;-88
2021/01/03 11:44:44;;;;;;;46.95;30.23;;;461.30;1126.40;;;;;;5052769;28;20452;-90
2021/01/03 11:47:12;;;;;;;28.60;19.77;;;461.20;1126.40;;;;;;5050946;28;20327;-90
2021/01/03 11:49:39;;;;;;;32.42;18.92;;;461.50;1100.80;;;;;;5034313;28;20033;-87
2021/01/03 11:52:06;;;;;;;23.50;13.73;;;461.50;1126.40;;;;;;5052701;28;20120;-83
2021/01/03 11:54:33;;;;;;;28.98;16.92;;;461.20;1126.40;;;;;;5038190;28;20080;-86
2021/01/03 11:56:59;;;;;;;38.67;23.60;;;461.10;1100.80;;;;;;5054319;28;20036;-85
2021/01/03 11:59:26;;;;;;;51.92;34.10;;;461.30;1126.40;;;;;;5053241;28;20112;-85
2021/01/03 12:02:02;;;;;;;59.63;40.30;;;461.50;1126.40;;;;;;5053672;28;20037;-86
2021/01/03 12:04:29;;;;;;;46.15;31.20;;;461.30;1177.60;;;;;;5053475;28;20041;-82
2021/01/03 12:07:03;;;;;;;38.78;28.42;;;461.10;1126.40;;;;;;5052886;28;20045;-83
2021/01/03 12:09:29;;;;;;;41.92;29.20;;;461.60;1075.20;;;;;;5039656;28;20095;-89
2021/01/03 12:11:57;;;;;;;98.07;69.45;;;461.10;1126.40;;;;;;5036890;28;20034;-86
2021/01/03 12:14:23;;;;;;;30.80;19.33;;;460.80;1126.40;;;;;;5054039;28;20032;-83
2021/01/03 12:17:11;;;;;;;32.58;21.45;;;435.70;1152.00;;;;;;5056214;28;20033;-87
2021/01/03 12:19:37;;;;;;;33.88;25.02;;;435.40;1152.00;;;;;;5054447;28;20076;-90
2021/01/03 12:22:05;;;;;;;38.95;27.30;;;435.20;1203.20;;;;;;5059779;28;20025;-90
2021/01/03 12:24:31;;;;;;;51.38;37.08;;;435.20;1228.80;;;;;;5020708;28;20116;-90